sensor_id;sensor_type;location;lat;lon;timestamp;temperature;humidity
33761;DHT22;20084;47.912;19.044;2022-10-16T00:00:56;14.30;99.90
33761;DHT22;20084;47.912;19.044;2022-10-16T00:03:22;14.20;99.90
33761;DHT22;20084;47.912;19.044;2022-10-16T00:05:48;14.30;99.90
33761;DHT22;20084;47.912;19.044;2022-10-16T00:08:14;14.30;99.90
33761;DHT22;20084;47.912;19.044;2022-10-16T00:10:40;14.30;99.90
33761;DHT22;20084;47.912;19.044;2022-10-16T00:13:06;14.40;99.90
33761;DHT22;20084;47.912;19.044;2022-10-16T00:15:36;14.40;99.90
33761;DHT22;20084;47.912;19.044;2022-10-16T00:18:03;14.40;99.90
33761;DHT22;20084;47.912;19.044;2022-10-16T00:20:29;14.40;99.90
33761;DHT22;20084;47.912;19.044;2022-10-16T00:22:56;14.40;99.90
33761;DHT22;20084;47.912;19.044;2022-10-16T00:25:22;14.40;99.90
33761;DHT22;20084;47.912;19.044;2022-10-16T00:27:48;14.40;99.90
33761;DHT22;20084;47.912;19.044;2022-10-16T00:30:14;14.40;99.90
33761;DHT22;20084;47.912;19.044;2022-10-16T00:32:39;14.40;99.90
33761;DHT22;20084;47.912;19.044;2022-10-16T00:35:05;14.40;99.90
33761;DHT22;20084;47.912;19.044;2022-10-16T00:37:31;14.40;99.90
33761;DHT22;20084;47.912;19.044;2022-10-16T00:39:56;14.40;99.90
33761;DHT22;20084;47.912;19.044;2022-10-16T00:42:22;14.40;99.90
33761;DHT22;20084;47.912;19.044;2022-10-16T00:44:55;14.40;99.90
33761;DHT22;20084;47.912;19.044;2022-10-16T00:47:32;14.40;99.90
33761;DHT22;20084;47.912;19.044;2022-10-16T00:50:09;14.40;99.90
33761;DHT22;20084;47.912;19.044;2022-10-16T00:52:36;14.40;99.90
33761;DHT22;20084;47.912;19.044;2022-10-16T00:55:06;14.50;99.90
33761;DHT22;20084;47.912;19.044;2022-10-16T00:57:31;14.50;99.90
33761;DHT22;20084;47.912;19.044;2022-10-16T00:59:57;14.50;99.90
33761;DHT22;20084;47.912;19.044;2022-10-16T01:02:23;14.50;99.90
33761;DHT22;20084;47.912;19.044;2022-10-16T01:04:51;14.50;99.90
33761;DHT22;20084;47.912;19.044;2022-10-16T01:13:14;14.60;99.90
33761;DHT22;20084;47.912;19.044;2022-10-16T01:16:05;14.60;99.90
33761;DHT22;20084;47.912;19.044;2022-10-16T01:18:47;14.70;99.90
33761;DHT22;20084;47.912;19.044;2022-10-16T01:21:28;14.70;99.90
33761;DHT22;20084;47.912;19.044;2022-10-16T01:29:36;14.60;99.90
33761;DHT22;20084;47.912;19.044;2022-10-16T01:32:16;14.70;99.90
33761;DHT22;20084;47.912;19.044;2022-10-16T01:34:58;14.60;99.90
33761;DHT22;20084;47.912;19.044;2022-10-16T01:37:36;14.60;99.90
33761;DHT22;20084;47.912;19.044;2022-10-16T01:40:09;14.60;99.90
33761;DHT22;20084;47.912;19.044;2022-10-16T01:43:06;14.60;99.90
33761;DHT22;20084;47.912;19.044;2022-10-16T01:45:34;14.50;99.90
33761;DHT22;20084;47.912;19.044;2022-10-16T01:48:02;14.50;99.90
33761;DHT22;20084;47.912;19.044;2022-10-16T01:50:33;14.50;99.90
33761;DHT22;20084;47.912;19.044;2022-10-16T01:53:02;14.40;99.90
33761;DHT22;20084;47.912;19.044;2022-10-16T01:55:32;14.40;99.90
33761;DHT22;20084;47.912;19.044;2022-10-16T01:57:59;14.40;99.90
33761;DHT22;20084;47.912;19.044;2022-10-16T02:00:27;14.40;99.90
33761;DHT22;20084;47.912;19.044;2022-10-16T02:02:55;14.40;99.90
33761;DHT22;20084;47.912;19.044;2022-10-16T02:05:48;14.40;99.90
33761;DHT22;20084;47.912;19.044;2022-10-16T02:08:16;14.40;99.90
33761;DHT22;20084;47.912;19.044;2022-10-16T02:10:41;14.40;99.90
33761;DHT22;20084;47.912;19.044;2022-10-16T02:13:13;14.40;99.90
33761;DHT22;20084;47.912;19.044;2022-10-16T02:15:41;14.40;99.90
33761;DHT22;20084;47.912;19.044;2022-10-16T02:18:07;14.40;99.90
33761;DHT22;20084;47.912;19.044;2022-10-16T02:20:45;14.30;99.90
33761;DHT22;20084;47.912;19.044;2022-10-16T02:23:19;14.30;99.90
33761;DHT22;20084;47.912;19.044;2022-10-16T02:25:50;14.20;99.90
33761;DHT22;20084;47.912;19.044;2022-10-16T02:28:37;14.20;99.90
33761;DHT22;20084;47.912;19.044;2022-10-16T02:31:07;14.20;99.90
33761;DHT22;20084;47.912;19.044;2022-10-16T02:33:34;14.20;99.90
33761;DHT22;20084;47.912;19.044;2022-10-16T02:36:01;14.30;99.90
33761;DHT22;20084;47.912;19.044;2022-10-16T02:38:26;14.30;99.90
33761;DHT22;20084;47.912;19.044;2022-10-16T02:40:53;14.20;99.90
33761;DHT22;20084;47.912;19.044;2022-10-16T02:43:19;14.10;99.90
33761;DHT22;20084;47.912;19.044;2022-10-16T02:45:45;14.10;99.90
33761;DHT22;20084;47.912;19.044;2022-10-16T02:48:11;14.00;99.90
33761;DHT22;20084;47.912;19.044;2022-10-16T02:50:36;14.00;99.90
33761;DHT22;20084;47.912;19.044;2022-10-16T02:53:02;13.90;99.90
33761;DHT22;20084;47.912;19.044;2022-10-16T02:55:27;13.90;99.90
33761;DHT22;20084;47.912;19.044;2022-10-16T02:57:53;13.90;99.90
33761;DHT22;20084;47.912;19.044;2022-10-16T03:00:19;14.00;99.90
33761;DHT22;20084;47.912;19.044;2022-10-16T03:02:45;13.90;99.90
33761;DHT22;20084;47.912;19.044;2022-10-16T03:05:12;13.90;99.90
33761;DHT22;20084;47.912;19.044;2022-10-16T03:07:38;13.90;99.90
33761;DHT22;20084;47.912;19.044;2022-10-16T03:10:04;13.90;99.90
33761;DHT22;20084;47.912;19.044;2022-10-16T03:12:30;13.90;99.90
33761;DHT22;20084;47.912;19.044;2022-10-16T03:14:56;13.90;99.90
33761;DHT22;20084;47.912;19.044;2022-10-16T03:17:23;13.80;99.90
33761;DHT22;20084;47.912;19.044;2022-10-16T03:19:48;13.70;99.90
33761;DHT22;20084;47.912;19.044;2022-10-16T03:22:14;13.60;99.90
33761;DHT22;20084;47.912;19.044;2022-10-16T03:24:39;13.60;99.90
33761;DHT22;20084;47.912;19.044;2022-10-16T03:27:05;13.50;99.90
33761;DHT22;20084;47.912;19.044;2022-10-16T03:29:31;13.40;99.90
33761;DHT22;20084;47.912;19.044;2022-10-16T03:31:58;13.30;99.90
33761;DHT22;20084;47.912;19.044;2022-10-16T03:34:25;13.30;99.90
33761;DHT22;20084;47.912;19.044;2022-10-16T03:36:51;13.30;99.90
33761;DHT22;20084;47.912;19.044;2022-10-16T03:39:16;13.30;99.90
33761;DHT22;20084;47.912;19.044;2022-10-16T03:41:42;13.20;99.90
33761;DHT22;20084;47.912;19.044;2022-10-16T03:44:08;13.20;99.90
33761;DHT22;20084;47.912;19.044;2022-10-16T03:46:33;13.10;99.90
33761;DHT22;20084;47.912;19.044;2022-10-16T03:48:59;13.00;99.90
33761;DHT22;20084;47.912;19.044;2022-10-16T03:51:24;13.00;99.90
33761;DHT22;20084;47.912;19.044;2022-10-16T03:53:50;13.00;99.90
33761;DHT22;20084;47.912;19.044;2022-10-16T03:56:16;12.90;99.90
33761;DHT22;20084;47.912;19.044;2022-10-16T03:58:41;12.90;99.90
33761;DHT22;20084;47.912;19.044;2022-10-16T04:01:07;12.80;99.90
33761;DHT22;20084;47.912;19.044;2022-10-16T04:03:33;12.70;99.90
33761;DHT22;20084;47.912;19.044;2022-10-16T04:05:58;12.60;99.90
33761;DHT22;20084;47.912;19.044;2022-10-16T04:08:24;12.50;99.90
33761;DHT22;20084;47.912;19.044;2022-10-16T04:10:49;12.50;99.90
33761;DHT22;20084;47.912;19.044;2022-10-16T04:13:15;12.50;99.90
33761;DHT22;20084;47.912;19.044;2022-10-16T04:15:41;12.40;99.90
33761;DHT22;20084;47.912;19.044;2022-10-16T04:18:06;12.40;99.90
33761;DHT22;20084;47.912;19.044;2022-10-16T04:20:32;12.40;99.90
33761;DHT22;20084;47.912;19.044;2022-10-16T04:22:58;12.40;99.90
33761;DHT22;20084;47.912;19.044;2022-10-16T04:25:23;12.40;99.90
33761;DHT22;20084;47.912;19.044;2022-10-16T04:27:49;12.40;99.90
33761;DHT22;20084;47.912;19.044;2022-10-16T04:30:15;12.30;99.90
33761;DHT22;20084;47.912;19.044;2022-10-16T04:32:40;12.30;99.90
33761;DHT22;20084;47.912;19.044;2022-10-16T04:35:06;12.30;99.90
33761;DHT22;20084;47.912;19.044;2022-10-16T04:37:32;12.40;99.90
33761;DHT22;20084;47.912;19.044;2022-10-16T04:39:58;12.40;99.90
33761;DHT22;20084;47.912;19.044;2022-10-16T04:42:24;12.30;99.90
33761;DHT22;20084;47.912;19.044;2022-10-16T04:44:49;12.40;99.90
33761;DHT22;20084;47.912;19.044;2022-10-16T04:47:15;12.30;99.90
33761;DHT22;20084;47.912;19.044;2022-10-16T04:49:40;12.40;99.90
33761;DHT22;20084;47.912;19.044;2022-10-16T04:52:06;12.30;99.90
33761;DHT22;20084;47.912;19.044;2022-10-16T04:54:32;12.30;99.90
33761;DHT22;20084;47.912;19.044;2022-10-16T04:56:57;12.30;99.90
33761;DHT22;20084;47.912;19.044;2022-10-16T04:59:23;12.20;99.90
33761;DHT22;20084;47.912;19.044;2022-10-16T05:01:49;12.20;99.90
33761;DHT22;20084;47.912;19.044;2022-10-16T05:04:15;12.00;99.90
33761;DHT22;20084;47.912;19.044;2022-10-16T05:06:41;12.00;99.90
33761;DHT22;20084;47.912;19.044;2022-10-16T05:09:07;12.00;99.90
33761;DHT22;20084;47.912;19.044;2022-10-16T05:11:33;12.00;99.90
33761;DHT22;20084;47.912;19.044;2022-10-16T05:14:00;12.00;99.90
33761;DHT22;20084;47.912;19.044;2022-10-16T05:16:26;12.00;99.90
33761;DHT22;20084;47.912;19.044;2022-10-16T05:18:52;12.00;99.90
33761;DHT22;20084;47.912;19.044;2022-10-16T05:21:17;11.90;99.90
33761;DHT22;20084;47.912;19.044;2022-10-16T05:23:43;11.90;99.90
33761;DHT22;20084;47.912;19.044;2022-10-16T05:26:09;11.90;99.90
33761;DHT22;20084;47.912;19.044;2022-10-16T05:28:34;11.80;99.90
33761;DHT22;20084;47.912;19.044;2022-10-16T05:31:07;11.80;99.90
33761;DHT22;20084;47.912;19.044;2022-10-16T05:33:34;11.90;99.90
33761;DHT22;20084;47.912;19.044;2022-10-16T05:36:08;11.80;99.90
33761;DHT22;20084;47.912;19.044;2022-10-16T05:38:35;11.80;99.90
33761;DHT22;20084;47.912;19.044;2022-10-16T05:41:01;11.80;99.90
33761;DHT22;20084;47.912;19.044;2022-10-16T05:43:28;11.80;99.90
33761;DHT22;20084;47.912;19.044;2022-10-16T05:46:04;11.90;99.90
33761;DHT22;20084;47.912;19.044;2022-10-16T05:48:31;12.00;99.90
33761;DHT22;20084;47.912;19.044;2022-10-16T05:51:05;12.10;99.90
33761;DHT22;20084;47.912;19.044;2022-10-16T05:53:33;12.10;99.90
33761;DHT22;20084;47.912;19.044;2022-10-16T05:55:59;12.10;99.90
33761;DHT22;20084;47.912;19.044;2022-10-16T05:58:28;12.10;99.90
33761;DHT22;20084;47.912;19.044;2022-10-16T06:00:59;12.10;99.90
33761;DHT22;20084;47.912;19.044;2022-10-16T06:03:25;12.10;99.90
33761;DHT22;20084;47.912;19.044;2022-10-16T06:05:51;12.10;99.90
33761;DHT22;20084;47.912;19.044;2022-10-16T06:08:18;12.10;99.90
33761;DHT22;20084;47.912;19.044;2022-10-16T06:10:44;12.00;99.90
33761;DHT22;20084;47.912;19.044;2022-10-16T06:13:10;12.10;99.90
33761;DHT22;20084;47.912;19.044;2022-10-16T06:15:36;12.20;99.90
33761;DHT22;20084;47.912;19.044;2022-10-16T06:18:04;12.20;99.90
33761;DHT22;20084;47.912;19.044;2022-10-16T06:20:30;12.10;99.90
33761;DHT22;20084;47.912;19.044;2022-10-16T06:22:56;12.10;99.90
33761;DHT22;20084;47.912;19.044;2022-10-16T06:25:22;12.10;99.90
33761;DHT22;20084;47.912;19.044;2022-10-16T06:27:48;12.20;99.90
33761;DHT22;20084;47.912;19.044;2022-10-16T06:30:13;12.30;99.90
33761;DHT22;20084;47.912;19.044;2022-10-16T06:32:39;12.40;99.90
33761;DHT22;20084;47.912;19.044;2022-10-16T06:35:04;12.50;99.90
33761;DHT22;20084;47.912;19.044;2022-10-16T06:37:30;12.60;99.90
33761;DHT22;20084;47.912;19.044;2022-10-16T06:39:56;12.80;99.90
33761;DHT22;20084;47.912;19.044;2022-10-16T06:42:21;13.00;99.90
33761;DHT22;20084;47.912;19.044;2022-10-16T06:44:47;13.20;99.90
33761;DHT22;20084;47.912;19.044;2022-10-16T06:47:12;13.40;99.90
33761;DHT22;20084;47.912;19.044;2022-10-16T06:49:38;13.60;99.90
33761;DHT22;20084;47.912;19.044;2022-10-16T06:52:03;13.80;99.90
33761;DHT22;20084;47.912;19.044;2022-10-16T06:54:30;14.00;99.90
33761;DHT22;20084;47.912;19.044;2022-10-16T06:56:56;14.20;99.90
33761;DHT22;20084;47.912;19.044;2022-10-16T06:59:22;14.40;99.90
33761;DHT22;20084;47.912;19.044;2022-10-16T07:01:47;14.60;99.90
33761;DHT22;20084;47.912;19.044;2022-10-16T07:04:13;14.80;99.90
33761;DHT22;20084;47.912;19.044;2022-10-16T07:06:39;14.90;99.90
33761;DHT22;20084;47.912;19.044;2022-10-16T07:09:09;15.10;99.90
33761;DHT22;20084;47.912;19.044;2022-10-16T07:11:36;15.20;99.90
33761;DHT22;20084;47.912;19.044;2022-10-16T07:14:02;15.20;99.90
33761;DHT22;20084;47.912;19.044;2022-10-16T07:16:30;15.40;99.90
33761;DHT22;20084;47.912;19.044;2022-10-16T07:18:58;15.50;99.90
33761;DHT22;20084;47.912;19.044;2022-10-16T07:21:26;15.70;99.90
33761;DHT22;20084;47.912;19.044;2022-10-16T07:23:59;15.80;99.90
33761;DHT22;20084;47.912;19.044;2022-10-16T07:26:26;16.00;99.90
33761;DHT22;20084;47.912;19.044;2022-10-16T07:28:52;16.00;99.90
33761;DHT22;20084;47.912;19.044;2022-10-16T07:31:19;16.10;99.90
33761;DHT22;20084;47.912;19.044;2022-10-16T07:33:46;16.10;99.90
33761;DHT22;20084;47.912;19.044;2022-10-16T07:36:14;15.90;99.90
33761;DHT22;20084;47.912;19.044;2022-10-16T07:38:40;15.80;99.90
33761;DHT22;20084;47.912;19.044;2022-10-16T07:41:10;15.70;99.90
33761;DHT22;20084;47.912;19.044;2022-10-16T07:43:36;15.70;99.90
33761;DHT22;20084;47.912;19.044;2022-10-16T07:46:02;15.80;99.90
33761;DHT22;20084;47.912;19.044;2022-10-16T07:48:30;15.90;99.90
33761;DHT22;20084;47.912;19.044;2022-10-16T07:51:00;16.20;99.90
33761;DHT22;20084;47.912;19.044;2022-10-16T07:53:26;16.40;99.90
33761;DHT22;20084;47.912;19.044;2022-10-16T07:55:56;16.50;99.90
33761;DHT22;20084;47.912;19.044;2022-10-16T07:58:22;16.50;99.90
33761;DHT22;20084;47.912;19.044;2022-10-16T08:00:48;16.60;99.90
33761;DHT22;20084;47.912;19.044;2022-10-16T08:03:13;16.70;99.90
33761;DHT22;20084;47.912;19.044;2022-10-16T08:05:39;16.80;99.90
33761;DHT22;20084;47.912;19.044;2022-10-16T08:08:05;16.90;99.90
33761;DHT22;20084;47.912;19.044;2022-10-16T08:10:30;17.10;99.90
33761;DHT22;20084;47.912;19.044;2022-10-16T08:12:57;17.20;99.90
33761;DHT22;20084;47.912;19.044;2022-10-16T08:15:22;17.30;99.90
33761;DHT22;20084;47.912;19.044;2022-10-16T08:17:59;17.40;99.90
33761;DHT22;20084;47.912;19.044;2022-10-16T08:20:26;17.40;99.90
33761;DHT22;20084;47.912;19.044;2022-10-16T08:22:52;17.20;99.90
33761;DHT22;20084;47.912;19.044;2022-10-16T08:25:17;17.10;99.90
33761;DHT22;20084;47.912;19.044;2022-10-16T08:27:43;17.10;99.90
33761;DHT22;20084;47.912;19.044;2022-10-16T08:30:10;17.20;99.90
33761;DHT22;20084;47.912;19.044;2022-10-16T08:32:35;17.40;99.90
33761;DHT22;20084;47.912;19.044;2022-10-16T08:35:01;17.40;99.90
33761;DHT22;20084;47.912;19.044;2022-10-16T08:37:31;17.50;99.90
33761;DHT22;20084;47.912;19.044;2022-10-16T08:39:56;17.60;99.90
33761;DHT22;20084;47.912;19.044;2022-10-16T08:48:27;17.90;99.90
33761;DHT22;20084;47.912;19.044;2022-10-16T08:50:37;17.80;99.90
33761;DHT22;20084;47.912;19.044;2022-10-16T08:53:04;17.80;99.90
33761;DHT22;20084;47.912;19.044;2022-10-16T08:55:48;17.70;99.90
33761;DHT22;20084;47.912;19.044;2022-10-16T08:58:20;17.70;99.90
33761;DHT22;20084;47.912;19.044;2022-10-16T09:00:54;17.80;99.90
33761;DHT22;20084;47.912;19.044;2022-10-16T09:14:38;18.00;99.90
33761;DHT22;20084;47.912;19.044;2022-10-16T09:17:27;17.90;99.90
33761;DHT22;20084;47.912;19.044;2022-10-16T09:20:22;17.90;99.90
33761;DHT22;20084;47.912;19.044;2022-10-16T09:23:38;18.10;99.90
33761;DHT22;20084;47.912;19.044;2022-10-16T09:25:45;18.20;99.90
33761;DHT22;20084;47.912;19.044;2022-10-16T09:28:11;18.30;99.90
33761;DHT22;20084;47.912;19.044;2022-10-16T09:30:37;18.40;99.90
33761;DHT22;20084;47.912;19.044;2022-10-16T09:33:04;18.30;99.90
33761;DHT22;20084;47.912;19.044;2022-10-16T09:35:47;18.30;99.90
33761;DHT22;20084;47.912;19.044;2022-10-16T09:38:32;18.20;99.90
33761;DHT22;20084;47.912;19.044;2022-10-16T09:41:08;18.20;99.90
33761;DHT22;20084;47.912;19.044;2022-10-16T09:43:59;18.20;99.90
33761;DHT22;20084;47.912;19.044;2022-10-16T09:46:36;18.30;99.90
33761;DHT22;20084;47.912;19.044;2022-10-16T09:49:16;18.30;99.90
33761;DHT22;20084;47.912;19.044;2022-10-16T09:51:44;18.20;99.90
33761;DHT22;20084;47.912;19.044;2022-10-16T09:54:18;18.20;99.90
33761;DHT22;20084;47.912;19.044;2022-10-16T09:56:45;18.00;99.90
33761;DHT22;20084;47.912;19.044;2022-10-16T09:59:17;18.10;99.90
33761;DHT22;20084;47.912;19.044;2022-10-16T10:01:52;18.20;99.90
33761;DHT22;20084;47.912;19.044;2022-10-16T10:04:20;18.40;99.90
33761;DHT22;20084;47.912;19.044;2022-10-16T10:06:53;18.50;99.90
33761;DHT22;20084;47.912;19.044;2022-10-16T10:09:22;18.60;99.90
33761;DHT22;20084;47.912;19.044;2022-10-16T10:11:51;18.60;99.90
33761;DHT22;20084;47.912;19.044;2022-10-16T10:19:42;18.50;99.90
33761;DHT22;20084;47.912;19.044;2022-10-16T10:22:31;18.50;99.90
33761;DHT22;20084;47.912;19.044;2022-10-16T10:33:30;18.60;99.90
33761;DHT22;20084;47.912;19.044;2022-10-16T10:36:27;18.70;99.90
33761;DHT22;20084;47.912;19.044;2022-10-16T10:39:15;18.60;99.90
33761;DHT22;20084;47.912;19.044;2022-10-16T10:42:22;18.70;99.90
33761;DHT22;20084;47.912;19.044;2022-10-16T10:45:11;18.80;99.90
33761;DHT22;20084;47.912;19.044;2022-10-16T10:55:18;18.80;99.90
33761;DHT22;20084;47.912;19.044;2022-10-16T10:58:10;18.80;99.90
33761;DHT22;20084;47.912;19.044;2022-10-16T11:01:07;18.80;99.90
33761;DHT22;20084;47.912;19.044;2022-10-16T11:06:48;18.90;99.90
33761;DHT22;20084;47.912;19.044;2022-10-16T11:09:20;19.00;99.90
33761;DHT22;20084;47.912;19.044;2022-10-16T11:11:55;19.10;99.90
33761;DHT22;20084;47.912;19.044;2022-10-16T11:15:21;19.10;99.90
33761;DHT22;20084;47.912;19.044;2022-10-16T11:17:42;19.20;99.90
33761;DHT22;20084;47.912;19.044;2022-10-16T11:20:28;19.30;99.90
33761;DHT22;20084;47.912;19.044;2022-10-16T11:23:11;19.40;99.90
33761;DHT22;20084;47.912;19.044;2022-10-16T11:25:40;19.50;99.90
33761;DHT22;20084;47.912;19.044;2022-10-16T11:33:30;19.70;99.90
33761;DHT22;20084;47.912;19.044;2022-10-16T11:36:12;19.70;99.90
33761;DHT22;20084;47.912;19.044;2022-10-16T11:47:12;19.40;99.90
33761;DHT22;20084;47.912;19.044;2022-10-16T11:49:41;19.50;99.90
33761;DHT22;20084;47.912;19.044;2022-10-16T11:52:36;19.50;99.90
33761;DHT22;20084;47.912;19.044;2022-10-16T11:55:46;19.60;99.90
33761;DHT22;20084;47.912;19.044;2022-10-16T11:58:34;19.70;99.90
33761;DHT22;20084;47.912;19.044;2022-10-16T12:01:14;19.80;99.90
33761;DHT22;20084;47.912;19.044;2022-10-16T12:06:30;19.80;99.90
33761;DHT22;20084;47.912;19.044;2022-10-16T12:09:00;19.70;99.90
33761;DHT22;20084;47.912;19.044;2022-10-16T12:13:51;19.80;99.90
33761;DHT22;20084;47.912;19.044;2022-10-16T12:18:44;19.70;99.90
33761;DHT22;20084;47.912;19.044;2022-10-16T12:21:11;19.70;99.90
33761;DHT22;20084;47.912;19.044;2022-10-16T12:23:52;19.70;99.90
33761;DHT22;20084;47.912;19.044;2022-10-16T12:26:29;19.80;99.90
33761;DHT22;20084;47.912;19.044;2022-10-16T12:29:11;19.70;99.90
33761;DHT22;20084;47.912;19.044;2022-10-16T12:31:43;19.60;99.90
33761;DHT22;20084;47.912;19.044;2022-10-16T12:37:09;19.60;99.90
33761;DHT22;20084;47.912;19.044;2022-10-16T12:39:35;19.60;99.90
33761;DHT22;20084;47.912;19.044;2022-10-16T12:42:22;19.60;99.90
33761;DHT22;20084;47.912;19.044;2022-10-16T12:44:48;19.60;99.90
33761;DHT22;20084;47.912;19.044;2022-10-16T12:47:36;19.70;99.90
33761;DHT22;20084;47.912;19.044;2022-10-16T12:50:02;19.70;99.90
33761;DHT22;20084;47.912;19.044;2022-10-16T12:54:58;19.80;99.90
33761;DHT22;20084;47.912;19.044;2022-10-16T12:57:37;19.90;99.90
33761;DHT22;20084;47.912;19.044;2022-10-16T13:00:25;19.90;99.90
33761;DHT22;20084;47.912;19.044;2022-10-16T13:08:17;20.00;99.90
33761;DHT22;20084;47.912;19.044;2022-10-16T13:14:05;19.90;99.90
33761;DHT22;20084;47.912;19.044;2022-10-16T13:24:49;20.10;99.90
33761;DHT22;20084;47.912;19.044;2022-10-16T13:27:44;20.20;99.90
33761;DHT22;20084;47.912;19.044;2022-10-16T13:30:20;20.20;99.90
33761;DHT22;20084;47.912;19.044;2022-10-16T13:32:49;20.30;99.90
33761;DHT22;20084;47.912;19.044;2022-10-16T13:35:24;20.40;99.90
33761;DHT22;20084;47.912;19.044;2022-10-16T13:37:50;20.60;99.90
33761;DHT22;20084;47.912;19.044;2022-10-16T13:40:23;20.80;99.90
33761;DHT22;20084;47.912;19.044;2022-10-16T13:42:50;20.80;99.90
33761;DHT22;20084;47.912;19.044;2022-10-16T13:45:24;20.80;99.90
33761;DHT22;20084;47.912;19.044;2022-10-16T13:48:08;20.80;99.90
33761;DHT22;20084;47.912;19.044;2022-10-16T13:50:34;20.90;99.90
33761;DHT22;20084;47.912;19.044;2022-10-16T13:53:09;20.90;99.90
33761;DHT22;20084;47.912;19.044;2022-10-16T13:55:38;20.90;99.90
33761;DHT22;20084;47.912;19.044;2022-10-16T13:58:14;20.90;99.90
33761;DHT22;20084;47.912;19.044;2022-10-16T14:00:52;20.90;99.90
33761;DHT22;20084;47.912;19.044;2022-10-16T14:03:19;21.00;99.90
33761;DHT22;20084;47.912;19.044;2022-10-16T14:05:57;21.00;99.90
33761;DHT22;20084;47.912;19.044;2022-10-16T14:08:25;21.10;99.90
33761;DHT22;20084;47.912;19.044;2022-10-16T14:10:53;21.30;99.90
33761;DHT22;20084;47.912;19.044;2022-10-16T14:13:28;21.40;99.90
33761;DHT22;20084;47.912;19.044;2022-10-16T14:15:54;21.40;99.90
33761;DHT22;20084;47.912;19.044;2022-10-16T14:18:23;21.40;99.50
33761;DHT22;20084;47.912;19.044;2022-10-16T14:20:50;21.60;99.50
33761;DHT22;20084;47.912;19.044;2022-10-16T14:23:23;22.20;98.90
33761;DHT22;20084;47.912;19.044;2022-10-16T14:25:53;23.20;97.70
33761;DHT22;20084;47.912;19.044;2022-10-16T14:28:21;24.60;95.60
33761;DHT22;20084;47.912;19.044;2022-10-16T14:30:53;25.50;94.00
33761;DHT22;20084;47.912;19.044;2022-10-16T14:33:24;26.10;92.50
33761;DHT22;20084;47.912;19.044;2022-10-16T14:36:01;26.60;90.60
33761;DHT22;20084;47.912;19.044;2022-10-16T14:38:27;27.20;90.00
33761;DHT22;20084;47.912;19.044;2022-10-16T14:40:54;27.50;86.20
33761;DHT22;20084;47.912;19.044;2022-10-16T14:43:31;27.90;84.20
33761;DHT22;20084;47.912;19.044;2022-10-16T14:45:58;28.10;80.60
33761;DHT22;20084;47.912;19.044;2022-10-16T14:48:24;28.00;80.20
33761;DHT22;20084;47.912;19.044;2022-10-16T14:50:50;27.90;80.10
33761;DHT22;20084;47.912;19.044;2022-10-16T14:53:16;27.80;79.00
33761;DHT22;20084;47.912;19.044;2022-10-16T14:55:41;27.70;78.10
33761;DHT22;20084;47.912;19.044;2022-10-16T14:58:16;27.70;76.40
33761;DHT22;20084;47.912;19.044;2022-10-16T15:00:43;27.50;75.50
33761;DHT22;20084;47.912;19.044;2022-10-16T15:03:08;27.30;75.80
33761;DHT22;20084;47.912;19.044;2022-10-16T15:05:34;27.10;75.60
33761;DHT22;20084;47.912;19.044;2022-10-16T15:08:00;26.80;75.50
33761;DHT22;20084;47.912;19.044;2022-10-16T15:10:27;26.50;76.10
33761;DHT22;20084;47.912;19.044;2022-10-16T15:12:54;26.20;76.10
33761;DHT22;20084;47.912;19.044;2022-10-16T15:17:49;25.80;75.70
33761;DHT22;20084;47.912;19.044;2022-10-16T15:20:19;25.60;76.60
33761;DHT22;20084;47.912;19.044;2022-10-16T15:22:44;25.60;78.10
33761;DHT22;20084;47.912;19.044;2022-10-16T15:25:35;25.50;80.80
33761;DHT22;20084;47.912;19.044;2022-10-16T15:28:02;25.20;82.30
33761;DHT22;20084;47.912;19.044;2022-10-16T15:30:28;25.10;84.30
33761;DHT22;20084;47.912;19.044;2022-10-16T15:32:54;24.70;86.30
33761;DHT22;20084;47.912;19.044;2022-10-16T15:35:20;23.90;88.60
33761;DHT22;20084;47.912;19.044;2022-10-16T15:37:47;23.20;90.60
33761;DHT22;20084;47.912;19.044;2022-10-16T15:40:14;22.40;92.20
33761;DHT22;20084;47.912;19.044;2022-10-16T15:42:39;21.70;93.60
33761;DHT22;20084;47.912;19.044;2022-10-16T15:45:05;20.90;95.30
33761;DHT22;20084;47.912;19.044;2022-10-16T15:47:32;20.30;97.10
33761;DHT22;20084;47.912;19.044;2022-10-16T15:49:57;19.80;98.40
33761;DHT22;20084;47.912;19.044;2022-10-16T15:52:23;19.50;99.70
33761;DHT22;20084;47.912;19.044;2022-10-16T15:54:49;19.10;99.90
33761;DHT22;20084;47.912;19.044;2022-10-16T15:57:14;18.90;99.90
33761;DHT22;20084;47.912;19.044;2022-10-16T15:59:40;18.60;99.90
33761;DHT22;20084;47.912;19.044;2022-10-16T16:02:06;18.40;99.90
33761;DHT22;20084;47.912;19.044;2022-10-16T16:04:31;18.20;99.90
33761;DHT22;20084;47.912;19.044;2022-10-16T16:06:57;18.00;99.90
33761;DHT22;20084;47.912;19.044;2022-10-16T16:09:23;17.80;99.90
33761;DHT22;20084;47.912;19.044;2022-10-16T16:11:49;17.60;99.90
33761;DHT22;20084;47.912;19.044;2022-10-16T16:14:16;17.50;99.90
33761;DHT22;20084;47.912;19.044;2022-10-16T16:16:42;17.40;99.90
33761;DHT22;20084;47.912;19.044;2022-10-16T16:19:08;17.30;99.90
33761;DHT22;20084;47.912;19.044;2022-10-16T16:21:34;17.20;99.90
33761;DHT22;20084;47.912;19.044;2022-10-16T16:24:00;17.10;99.90
33761;DHT22;20084;47.912;19.044;2022-10-16T16:26:28;17.00;99.90
33761;DHT22;20084;47.912;19.044;2022-10-16T16:28:58;16.90;99.90
33761;DHT22;20084;47.912;19.044;2022-10-16T16:31:25;16.60;99.90
33761;DHT22;20084;47.912;19.044;2022-10-16T16:33:51;16.50;99.90
33761;DHT22;20084;47.912;19.044;2022-10-16T16:36:17;16.40;99.90
33761;DHT22;20084;47.912;19.044;2022-10-16T16:38:44;16.40;99.90
33761;DHT22;20084;47.912;19.044;2022-10-16T16:41:21;16.30;99.90
33761;DHT22;20084;47.912;19.044;2022-10-16T16:43:47;16.20;99.90
33761;DHT22;20084;47.912;19.044;2022-10-16T16:46:14;16.10;99.90
33761;DHT22;20084;47.912;19.044;2022-10-16T16:48:40;16.00;99.90
33761;DHT22;20084;47.912;19.044;2022-10-16T16:51:08;15.90;99.90
33761;DHT22;20084;47.912;19.044;2022-10-16T16:53:35;15.80;99.90
33761;DHT22;20084;47.912;19.044;2022-10-16T16:56:05;15.60;99.90
33761;DHT22;20084;47.912;19.044;2022-10-16T16:58:31;15.50;99.90
33761;DHT22;20084;47.912;19.044;2022-10-16T17:00:57;15.50;99.90
33761;DHT22;20084;47.912;19.044;2022-10-16T17:03:32;15.50;99.90
33761;DHT22;20084;47.912;19.044;2022-10-16T17:06:06;15.40;99.90
33761;DHT22;20084;47.912;19.044;2022-10-16T17:08:34;15.40;99.90
33761;DHT22;20084;47.912;19.044;2022-10-16T17:11:00;15.30;99.90